Amagi Galaxy — V7VE9 — position and weather

sailwx.info

Track history (hours):
 
Tides and Currents Weather Stations Pressure Air Temp Water Temp Dewpoint Dewpoint Depression Visibility Wind Speed Wind Dir Waves Ship Positions

Amagi Galaxy

Last reported at 2014-Dec-17 06:11 UTC. Time now 2014-Dec-19 22:44 UTC.
Position N 48°31' W 126°40'.

Length 152 m; draft 10.1 m.

Type: Ship (hazmat cat B). MMSI: 538004105.

Date/timePositionNaut miles runAvg speedWind from/ knotsBaromVisibWave heightAir tempDewpointWater temp
2014-Dec-17 06:11N 48°31' W 126°40'812.4
2014-Dec-17 05:31N 48°31' W 126°28'1213.0
2014-Dec-17 04:33N 48°31' W 126°09'1313.1
2014-Dec-17 03:33N 48°31' W 125°49'1312.9
2014-Dec-17 02:33N 48°31' W 125°30'1313.1
2014-Dec-17 01:33N 48°31' W 125°10'1413.8
2014-Dec-17 00:33N 48°31' W 124°49'1514.8
2014-Dec-16 23:33N 48°26' W 124°28'1616.1
2014-Dec-16 22:33N 48°20' W 124°06'1515.2
2014-Dec-16 21:33N 48°16' W 123°43'1211.5
2014-Dec-16 20:31N 48°20' W 123°27'9 9.8
2014-Dec-16 19:34N 48°24' W 123°13'1413.9
2014-Dec-16 18:33N 48°38' W 123°15'1212.3
2014-Dec-16 17:33N 48°47' W 123°02'1312.8
2014-Dec-16 16:33N 48°57' W 123°14'1312.9
2014-Dec-16 15:33N 49°08' W 123°23'1312.7
2014-Dec-16 14:33N 49°19' W 123°13'8 8.1
2014-Dec-16 13:33N 49°18' W 123°01'5 5.4
2014-Dec-16 12:33N 49°18' W 122°53'1 0.7
2014-Dec-16 11:32N 49°17' W 122°52'0 0.0
2014-Dec-16 09:23N 49°17' W 122°52'0 0.0
2014-Dec-15 22:20N 49°17' W 122°52'0 0.0
2014-Dec-15 21:11N 49°17' W 122°52'0 0.0
2014-Dec-15 20:29N 49°17' W 122°52'0 0.0
2014-Dec-15 18:29N 49°17' W 122°52'0 0.0
2014-Dec-14 21:20N 49°17' W 122°52'0 0.0
2014-Dec-14 19:32N 49°17' W 122°52'0 0.0
2014-Dec-14 18:26N 49°17' W 122°52'0 0.0
2014-Dec-14 17:26N 49°17' W 122°52'0 0.0
2014-Dec-14 15:29N 49°17' W 122°52'0 0.0
2014-Dec-14 14:34N 49°17' W 122°52'3 2.6
2014-Dec-14 13:33N 49°18' W 122°56'0 0.2
2014-Dec-14 12:29N 49°18' W 122°56'0 0.0
2014-Dec-14 11:32N 49°18' W 122°56'0 0.0
2014-Dec-14 10:32N 49°18' W 122°56'0 0.0
2014-Dec-14 09:32N 49°18' W 122°56'0 0.0
2014-Dec-14 08:32N 49°18' W 122°56'0 0.0
2014-Dec-14 07:32N 49°18' W 122°56'0 0.0
2014-Dec-14 06:32N 49°18' W 122°56'0 0.0
2014-Dec-14 05:29N 49°18' W 122°56'0 0.0
2014-Dec-14 04:32N 49°18' W 122°56'0 0.0
2014-Dec-14 03:32N 49°18' W 122°56'0 0.0
2014-Dec-14 02:32N 49°18' W 122°56'0 0.0
2014-Dec-14 01:32N 49°18' W 122°56'0 0.0
2014-Dec-14 00:32N 49°18' W 122°56'0 0.0
2014-Dec-13 23:32N 49°18' W 122°56'0 0.0
2014-Dec-13 22:32N 49°18' W 122°56'0 0.0
2014-Dec-13 21:32N 49°18' W 122°56'0 0.0
2014-Dec-13 20:32N 49°18' W 122°56'0 0.1
2014-Dec-13 19:32N 49°18' W 122°56'0 0.1
2014-Dec-13 18:32N 49°18' W 122°56'0 0.0
2014-Dec-13 17:32N 49°18' W 122°56'0 0.0
2014-Dec-13 16:32N 49°18' W 122°56'0 0.0
2014-Dec-13 15:32N 49°18' W 122°56'0 0.0
2014-Dec-13 14:32N 49°18' W 122°56'0 0.0
2014-Dec-13 13:32N 49°18' W 122°56'0 0.0
2014-Dec-13 12:32N 49°18' W 122°56'0 0.0
2014-Dec-13 11:32N 49°18' W 122°56'0 0.0
2014-Dec-13 10:32N 49°18' W 122°56'0 0.0
2014-Dec-13 09:32N 49°18' W 122°56'0 0.0
2014-Dec-13 08:29N 49°18' W 122°56'0 0.0
2014-Dec-13 07:32N 49°18' W 122°56'0 0.1
2014-Dec-13 06:29N 49°18' W 122°56'0 0.1
2014-Dec-13 05:32N 49°18' W 122°56'0 0.0
2014-Dec-13 04:32N 49°18' W 122°56'0 0.0
2014-Dec-13 03:29N 49°18' W 122°56'0 0.1
2014-Dec-13 02:32N 49°18' W 122°56'0 0.1
2014-Dec-13 01:32N 49°18' W 122°56'0 0.1
2014-Dec-13 00:32N 49°18' W 122°56'0 0.0
2014-Dec-12 23:32N 49°18' W 122°56'0 0.1
2014-Dec-12 22:26N 49°18' W 122°56'0 0.1
2014-Dec-12 21:32N 49°18' W 122°56'0 0.1
2014-Dec-12 20:32N 49°18' W 122°56'0 0.1
2014-Dec-12 19:32N 49°18' W 122°56'0 0.1
2014-Dec-12 18:32N 49°18' W 122°56'0 0.0
2014-Dec-12 17:32N 49°18' W 122°56'0 0.0
2014-Dec-12 16:32N 49°18' W 122°56'0 0.0
2014-Dec-12 15:32N 49°18' W 122°56'0 0.0
2014-Dec-12 14:32N 49°18' W 122°56'0 0.0
2014-Dec-12 13:32N 49°18' W 122°56'0 0.0
2014-Dec-12 12:32N 49°18' W 122°56'0 0.1
2014-Dec-12 11:32N 49°18' W 122°56'0 0.0
2014-Dec-12 10:32N 49°18' W 122°56'0 0.0
2014-Dec-12 09:32N 49°18' W 122°56'0 0.0
2014-Dec-12 08:32N 49°18' W 122°56'0 0.0
2014-Dec-12 07:32N 49°18' W 122°56'0 0.1
2014-Dec-12 06:32N 49°18' W 122°56'0 0.0
2014-Dec-12 05:32N 49°18' W 122°56'0 0.0
2014-Dec-12 04:32N 49°18' W 122°56'0 0.0
2014-Dec-12 03:32N 49°18' W 122°56'0 0.1
2014-Dec-12 02:32N 49°18' W 122°56'0 0.0
2014-Dec-12 01:32N 49°18' W 122°56'0 0.0
2014-Dec-12 00:32N 49°18' W 122°56'0 0.0
2014-Dec-11 23:29N 49°18' W 122°56'0 0.0
2014-Dec-11 22:32N 49°18' W 122°56'0 0.0
2014-Dec-11 21:32N 49°18' W 122°56'0 0.0
2014-Dec-11 20:29N 49°18' W 122°56'0 0.0
2014-Dec-11 19:32N 49°18' W 122°56'0 0.0
2014-Dec-11 18:32N 49°18' W 122°56'0 0.0
2014-Dec-11 17:32N 49°18' W 122°56'0 0.1
2014-Dec-11 16:32N 49°18' W 122°56'0 0.1
2014-Dec-11 15:32N 49°18' W 122°56'0 0.1
2014-Dec-11 14:32N 49°18' W 122°56'0 0.0
2014-Dec-11 13:32N 49°18' W 122°56'0 0.0
2014-Dec-11 12:32N 49°18' W 122°56'0 0.1
2014-Dec-11 11:32N 49°18' W 122°56'0 0.0
2014-Dec-11 10:32N 49°18' W 122°56'0 0.0
2014-Dec-11 09:32N 49°18' W 122°56'0 0.1
2014-Dec-11 08:32N 49°18' W 122°56'0 0.0
2014-Dec-11 07:32N 49°18' W 122°56'0 0.0
2014-Dec-11 06:32N 49°18' W 122°56'0 0.0
2014-Dec-11 05:32N 49°18' W 122°56'0 0.1
2014-Dec-11 04:32N 49°18' W 122°56'0 0.1
2014-Dec-11 03:32N 49°18' W 122°56'0 0.1
2014-Dec-11 02:32N 49°18' W 122°56'0 0.1
2014-Dec-11 01:32N 49°18' W 122°56'0 0.1
2014-Dec-11 00:32N 49°18' W 122°56'0 0.0
2014-Dec-10 23:32N 49°18' W 122°56'0 0.0
2014-Dec-10 22:32N 49°18' W 122°56'0 0.0
2014-Dec-10 21:32N 49°18' W 122°56'0 0.0
2014-Dec-10 20:32N 49°18' W 122°56'0 0.1
2014-Dec-10 19:32N 49°18' W 122°56'0 0.0
2014-Dec-10 18:32N 49°18' W 122°56'0 0.1
2014-Dec-10 17:32N 49°18' W 122°56'0 0.1
2014-Dec-10 16:32N 49°18' W 122°56'0 0.0
2014-Dec-10 15:32N 49°18' W 122°56'0 0.0
2014-Dec-10 14:32N 49°18' W 122°56'0 0.1
2014-Dec-10 13:32N 49°18' W 122°56'0 0.2
2014-Dec-10 12:32N 49°18' W 122°56'0 0.0
2014-Dec-10 11:32N 49°18' W 122°56'0 0.0
2014-Dec-10 10:32N 49°18' W 122°56'0 0.1
2014-Dec-10 09:32N 49°18' W 122°56'0 0.0
2014-Dec-10 08:26N 49°18' W 122°56'0 0.0
2014-Dec-10 07:32N 49°18' W 122°56'0 0.0
2014-Dec-10 06:29N 49°18' W 122°56'0 0.1
2014-Dec-10 05:32N 49°18' W 122°56'0 0.0
2014-Dec-10 04:26N 49°18' W 122°56'0 0.1
2014-Dec-10 03:32N 49°18' W 122°56'0 0.0
2014-Dec-10 02:32N 49°18' W 122°56'0 0.1
2014-Dec-10 01:32N 49°18' W 122°56'0 0.0
2014-Dec-10 00:32N 49°18' W 122°56'0 0.0
2014-Dec-09 23:32N 49°18' W 122°56'0 0.0
2014-Dec-09 22:29N 49°18' W 122°56'0 0.1
2014-Dec-09 21:32N 49°18' W 122°56'0 0.0
2014-Dec-09 20:32N 49°18' W 122°56'0 0.1
2014-Dec-09 19:32N 49°18' W 122°56'0 0.1
2014-Dec-09 18:32N 49°18' W 122°56'0 0.1
2014-Dec-09 17:32N 49°18' W 122°56'0 0.1
2014-Dec-09 16:32N 49°18' W 122°56'0 0.0
2014-Dec-09 15:32N 49°18' W 122°56'0 0.0
2014-Dec-09 14:29N 49°18' W 122°56'0 0.0
2014-Dec-09 13:32N 49°18' W 122°56'0 0.1
2014-Dec-09 12:32N 49°18' W 122°56'0 0.0
2014-Dec-09 11:32N 49°18' W 122°56'0 0.0
2014-Dec-09 10:32N 49°18' W 122°56'0 0.0
2014-Dec-09 09:32N 49°18' W 122°56'0 0.0
2014-Dec-09 08:32N 49°18' W 122°56'0 0.0
2014-Dec-09 07:32N 49°18' W 122°56'0 0.0
2014-Dec-09 06:32N 49°18' W 122°56'0 0.0
2014-Dec-09 05:32N 49°18' W 122°56'0 0.0
2014-Dec-09 04:32N 49°18' W 122°56'0 0.0
2014-Dec-09 03:32N 49°18' W 122°56'0 0.0
2014-Dec-09 02:32N 49°18' W 122°56'0 0.1
2014-Dec-09 01:32N 49°18' W 122°56'0 0.1
2014-Dec-09 00:32N 49°18' W 122°56'0 0.0
2014-Dec-08 23:32N 49°18' W 122°56'0 0.0
2014-Dec-08 22:32N 49°18' W 122°56'0 0.0
2014-Dec-08 21:32N 49°18' W 122°56'0 0.1
2014-Dec-08 20:32N 49°18' W 122°56'0 0.1
2014-Dec-08 19:29N 49°18' W 122°56'0 0.0
2014-Dec-08 18:32N 49°18' W 122°56'0 0.1
2014-Dec-08 17:29N 49°18' W 122°56'0 0.1
2014-Dec-08 16:32N 49°18' W 122°56'0 0.1
2014-Dec-08 15:29N 49°18' W 122°56'0 0.0
2014-Dec-08 14:32N 49°18' W 122°56'0 0.0
2014-Dec-08 13:32N 49°18' W 122°56'0 0.1
2014-Dec-08 12:26N 49°18' W 122°56'0 0.1
2014-Dec-08 11:32N 49°18' W 122°56'0 0.0
2014-Dec-08 10:32N 49°18' W 122°56'0 0.0
2014-Dec-08 09:32N 49°18' W 122°56'0 0.1
2014-Dec-08 08:29N 49°18' W 122°56'0 0.0
2014-Dec-08 07:32N 49°18' W 122°56'0 0.0
2014-Dec-08 06:32N 49°18' W 122°56'0 0.0
2014-Dec-08 05:32N 49°18' W 122°56'0 0.0
2014-Dec-08 04:32N 49°18' W 122°56'0 0.1
2014-Dec-08 03:32N 49°18' W 122°56'0 0.0
2014-Dec-08 02:32N 49°18' W 122°56'0 0.0
2014-Dec-08 01:32N 49°18' W 122°56'0 0.0
2014-Dec-08 00:32N 49°18' W 122°56'0 0.1
2014-Dec-07 23:29N 49°18' W 122°56'0 0.0
2014-Dec-07 22:32N 49°18' W 122°56'0 0.0
2014-Dec-07 21:32N 49°18' W 122°56'0 0.0
2014-Dec-07 20:32N 49°18' W 122°56'0 0.1
2014-Dec-07 19:32N 49°18' W 122°56'0 0.0
2014-Dec-07 18:32N 49°18' W 122°56'0 0.0
2014-Dec-07 17:32N 49°18' W 122°56'0 0.0
2014-Dec-07 16:32N 49°18' W 122°56'0 0.1
2014-Dec-07 15:32N 49°18' W 122°56'0 0.1
2014-Dec-07 14:32N 49°18' W 122°56'0 0.0
2014-Dec-07 13:32N 49°18' W 122°56'0 0.1
2014-Dec-07 12:32N 49°18' W 122°56'0 0.0
2014-Dec-07 11:32N 49°18' W 122°56'0 0.0
2014-Dec-07 10:32N 49°18' W 122°56'0 0.0
2014-Dec-07 09:32N 49°18' W 122°56'0 0.0
2014-Dec-07 08:32N 49°18' W 122°56'0 0.0
2014-Dec-07 07:32N 49°18' W 122°56'0 0.0
2014-Dec-07 06:32N 49°18' W 122°56'  
Track history (hours):
 
Tides and Currents Weather Stations Pressure Air Temp Water Temp Dewpoint Dewpoint Depression Visibility Wind Speed Wind Dir Waves Ship Positions

Amagi Galaxy

Last reported at 2014-Dec-17 06:11 UTC. Time now 2014-Dec-19 22:44 UTC.
Position N 48°31' W 126°40'.

Length 152 m; draft 10.1 m.

Type: Ship (hazmat cat B). MMSI: 538004105.

Date/timePositionNaut miles runAvg speedWind from/ knotsBaromVisibWave heightAir tempDewpointWater temp
2014-Dec-17 06:11N 48°31' W 126°40'812.4
2014-Dec-17 05:31N 48°31' W 126°28'1213.0
2014-Dec-17 04:33N 48°31' W 126°09'1313.1
2014-Dec-17 03:33N 48°31' W 125°49'1312.9
2014-Dec-17 02:33N 48°31' W 125°30'1313.1
2014-Dec-17 01:33N 48°31' W 125°10'1413.8
2014-Dec-17 00:33N 48°31' W 124°49'1514.8
2014-Dec-16 23:33N 48°26' W 124°28'1616.1
2014-Dec-16 22:33N 48°20' W 124°06'1515.2
2014-Dec-16 21:33N 48°16' W 123°43'1211.5
2014-Dec-16 20:31N 48°20' W 123°27'9 9.8
2014-Dec-16 19:34N 48°24' W 123°13'1413.9
2014-Dec-16 18:33N 48°38' W 123°15'1212.3
2014-Dec-16 17:33N 48°47' W 123°02'1312.8
2014-Dec-16 16:33N 48°57' W 123°14'1312.9
2014-Dec-16 15:33N 49°08' W 123°23'1312.7
2014-Dec-16 14:33N 49°19' W 123°13'8 8.1
2014-Dec-16 13:33N 49°18' W 123°01'5 5.4
2014-Dec-16 12:33N 49°18' W 122°53'1 0.7
2014-Dec-16 11:32N 49°17' W 122°52'0 0.0
2014-Dec-16 09:23N 49°17' W 122°52'0 0.0
2014-Dec-15 22:20N 49°17' W 122°52'0 0.0
2014-Dec-15 21:11N 49°17' W 122°52'0 0.0
2014-Dec-15 20:29N 49°17' W 122°52'0 0.0
2014-Dec-15 18:29N 49°17' W 122°52'0 0.0
2014-Dec-14 21:20N 49°17' W 122°52'0 0.0
2014-Dec-14 19:32N 49°17' W 122°52'0 0.0
2014-Dec-14 18:26N 49°17' W 122°52'0 0.0
2014-Dec-14 17:26N 49°17' W 122°52'0 0.0
2014-Dec-14 15:29N 49°17' W 122°52'0 0.0
2014-Dec-14 14:34N 49°17' W 122°52'3 2.6
2014-Dec-14 13:33N 49°18' W 122°56'0 0.2
2014-Dec-14 12:29N 49°18' W 122°56'0 0.0
2014-Dec-14 11:32N 49°18' W 122°56'0 0.0
2014-Dec-14 10:32N 49°18' W 122°56'0 0.0
2014-Dec-14 09:32N 49°18' W 122°56'0 0.0
2014-Dec-14 08:32N 49°18' W 122°56'0 0.0
2014-Dec-14 07:32N 49°18' W 122°56'0 0.0
2014-Dec-14 06:32N 49°18' W 122°56'0 0.0
2014-Dec-14 05:29N 49°18' W 122°56'0 0.0
2014-Dec-14 04:32N 49°18' W 122°56'0 0.0
2014-Dec-14 03:32N 49°18' W 122°56'0 0.0
2014-Dec-14 02:32N 49°18' W 122°56'0 0.0
2014-Dec-14 01:32N 49°18' W 122°56'0 0.0
2014-Dec-14 00:32N 49°18' W 122°56'0 0.0
2014-Dec-13 23:32N 49°18' W 122°56'0 0.0
2014-Dec-13 22:32N 49°18' W 122°56'0 0.0
2014-Dec-13 21:32N 49°18' W 122°56'0 0.0
2014-Dec-13 20:32N 49°18' W 122°56'0 0.1
2014-Dec-13 19:32N 49°18' W 122°56'0 0.1
2014-Dec-13 18:32N 49°18' W 122°56'0 0.0
2014-Dec-13 17:32N 49°18' W 122°56'0 0.0
2014-Dec-13 16:32N 49°18' W 122°56'0 0.0
2014-Dec-13 15:32N 49°18' W 122°56'0 0.0
2014-Dec-13 14:32N 49°18' W 122°56'0 0.0
2014-Dec-13 13:32N 49°18' W 122°56'0 0.0
2014-Dec-13 12:32N 49°18' W 122°56'0 0.0
2014-Dec-13 11:32N 49°18' W 122°56'0 0.0
2014-Dec-13 10:32N 49°18' W 122°56'0 0.0
2014-Dec-13 09:32N 49°18' W 122°56'0 0.0
2014-Dec-13 08:29N 49°18' W 122°56'0 0.0
2014-Dec-13 07:32N 49°18' W 122°56'0 0.1
2014-Dec-13 06:29N 49°18' W 122°56'0 0.1
2014-Dec-13 05:32N 49°18' W 122°56'0 0.0
2014-Dec-13 04:32N 49°18' W 122°56'0 0.0
2014-Dec-13 03:29N 49°18' W 122°56'0 0.1
2014-Dec-13 02:32N 49°18' W 122°56'0 0.1
2014-Dec-13 01:32N 49°18' W 122°56'0 0.1
2014-Dec-13 00:32N 49°18' W 122°56'0 0.0
2014-Dec-12 23:32N 49°18' W 122°56'0 0.1
2014-Dec-12 22:26N 49°18' W 122°56'0 0.1
2014-Dec-12 21:32N 49°18' W 122°56'0 0.1
2014-Dec-12 20:32N 49°18' W 122°56'0 0.1
2014-Dec-12 19:32N 49°18' W 122°56'0 0.1
2014-Dec-12 18:32N 49°18' W 122°56'0 0.0
2014-Dec-12 17:32N 49°18' W 122°56'0 0.0
2014-Dec-12 16:32N 49°18' W 122°56'0 0.0
2014-Dec-12 15:32N 49°18' W 122°56'0 0.0
2014-Dec-12 14:32N 49°18' W 122°56'0 0.0
2014-Dec-12 13:32N 49°18' W 122°56'0 0.0
2014-Dec-12 12:32N 49°18' W 122°56'0 0.1
2014-Dec-12 11:32N 49°18' W 122°56'0 0.0
2014-Dec-12 10:32N 49°18' W 122°56'0 0.0
2014-Dec-12 09:32N 49°18' W 122°56'0 0.0
2014-Dec-12 08:32N 49°18' W 122°56'0 0.0
2014-Dec-12 07:32N 49°18' W 122°56'0 0.1
2014-Dec-12 06:32N 49°18' W 122°56'0 0.0
2014-Dec-12 05:32N 49°18' W 122°56'0 0.0
2014-Dec-12 04:32N 49°18' W 122°56'0 0.0
2014-Dec-12 03:32N 49°18' W 122°56'0 0.1
2014-Dec-12 02:32N 49°18' W 122°56'0 0.0
2014-Dec-12 01:32N 49°18' W 122°56'0 0.0
2014-Dec-12 00:32N 49°18' W 122°56'0 0.0
2014-Dec-11 23:29N 49°18' W 122°56'0 0.0
2014-Dec-11 22:32N 49°18' W 122°56'0 0.0
2014-Dec-11 21:32N 49°18' W 122°56'0 0.0
2014-Dec-11 20:29N 49°18' W 122°56'0 0.0
2014-Dec-11 19:32N 49°18' W 122°56'0 0.0
2014-Dec-11 18:32N 49°18' W 122°56'0 0.0
2014-Dec-11 17:32N 49°18' W 122°56'0 0.1
2014-Dec-11 16:32N 49°18' W 122°56'0 0.1
2014-Dec-11 15:32N 49°18' W 122°56'0 0.1
2014-Dec-11 14:32N 49°18' W 122°56'0 0.0
2014-Dec-11 13:32N 49°18' W 122°56'0 0.0
2014-Dec-11 12:32N 49°18' W 122°56'0 0.1
2014-Dec-11 11:32N 49°18' W 122°56'0 0.0
2014-Dec-11 10:32N 49°18' W 122°56'0 0.0
2014-Dec-11 09:32N 49°18' W 122°56'0 0.1
2014-Dec-11 08:32N 49°18' W 122°56'0 0.0
2014-Dec-11 07:32N 49°18' W 122°56'0 0.0
2014-Dec-11 06:32N 49°18' W 122°56'0 0.0
2014-Dec-11 05:32N 49°18' W 122°56'0 0.1
2014-Dec-11 04:32N 49°18' W 122°56'0 0.1
2014-Dec-11 03:32N 49°18' W 122°56'0 0.1
2014-Dec-11 02:32N 49°18' W 122°56'0 0.1
2014-Dec-11 01:32N 49°18' W 122°56'0 0.1
2014-Dec-11 00:32N 49°18' W 122°56'0 0.0
2014-Dec-10 23:32N 49°18' W 122°56'0 0.0
2014-Dec-10 22:32N 49°18' W 122°56'0 0.0
2014-Dec-10 21:32N 49°18' W 122°56'0 0.0
2014-Dec-10 20:32N 49°18' W 122°56'0 0.1
2014-Dec-10 19:32N 49°18' W 122°56'0 0.0
2014-Dec-10 18:32N 49°18' W 122°56'0 0.1
2014-Dec-10 17:32N 49°18' W 122°56'0 0.1
2014-Dec-10 16:32N 49°18' W 122°56'0 0.0
2014-Dec-10 15:32N 49°18' W 122°56'0 0.0
2014-Dec-10 14:32N 49°18' W 122°56'0 0.1
2014-Dec-10 13:32N 49°18' W 122°56'0 0.2
2014-Dec-10 12:32N 49°18' W 122°56'0 0.0
2014-Dec-10 11:32N 49°18' W 122°56'0 0.0
2014-Dec-10 10:32N 49°18' W 122°56'0 0.1
2014-Dec-10 09:32N 49°18' W 122°56'0 0.0
2014-Dec-10 08:26N 49°18' W 122°56'0 0.0
2014-Dec-10 07:32N 49°18' W 122°56'0 0.0
2014-Dec-10 06:29N 49°18' W 122°56'0 0.1
2014-Dec-10 05:32N 49°18' W 122°56'0 0.0
2014-Dec-10 04:26N 49°18' W 122°56'0 0.1
2014-Dec-10 03:32N 49°18' W 122°56'0 0.0
2014-Dec-10 02:32N 49°18' W 122°56'0 0.1
2014-Dec-10 01:32N 49°18' W 122°56'0 0.0
2014-Dec-10 00:32N 49°18' W 122°56'0 0.0
2014-Dec-09 23:32N 49°18' W 122°56'0 0.0
2014-Dec-09 22:29N 49°18' W 122°56'0 0.1
2014-Dec-09 21:32N 49°18' W 122°56'0 0.0
2014-Dec-09 20:32N 49°18' W 122°56'0 0.1
2014-Dec-09 19:32N 49°18' W 122°56'0 0.1
2014-Dec-09 18:32N 49°18' W 122°56'0 0.1
2014-Dec-09 17:32N 49°18' W 122°56'0 0.1
2014-Dec-09 16:32N 49°18' W 122°56'0 0.0
2014-Dec-09 15:32N 49°18' W 122°56'0 0.0
2014-Dec-09 14:29N 49°18' W 122°56'0 0.0
2014-Dec-09 13:32N 49°18' W 122°56'0 0.1
2014-Dec-09 12:32N 49°18' W 122°56'0 0.0
2014-Dec-09 11:32N 49°18' W 122°56'0 0.0
2014-Dec-09 10:32N 49°18' W 122°56'0 0.0
2014-Dec-09 09:32N 49°18' W 122°56'0 0.0
2014-Dec-09 08:32N 49°18' W 122°56'0 0.0
2014-Dec-09 07:32N 49°18' W 122°56'0 0.0
2014-Dec-09 06:32N 49°18' W 122°56'0 0.0
2014-Dec-09 05:32N 49°18' W 122°56'0 0.0
2014-Dec-09 04:32N 49°18' W 122°56'0 0.0
2014-Dec-09 03:32N 49°18' W 122°56'0 0.0
2014-Dec-09 02:32N 49°18' W 122°56'0 0.1
2014-Dec-09 01:32N 49°18' W 122°56'0 0.1
2014-Dec-09 00:32N 49°18' W 122°56'0 0.0
2014-Dec-08 23:32N 49°18' W 122°56'0 0.0
2014-Dec-08 22:32N 49°18' W 122°56'0 0.0
2014-Dec-08 21:32N 49°18' W 122°56'0 0.1
2014-Dec-08 20:32N 49°18' W 122°56'0 0.1
2014-Dec-08 19:29N 49°18' W 122°56'0 0.0
2014-Dec-08 18:32N 49°18' W 122°56'0 0.1
2014-Dec-08 17:29N 49°18' W 122°56'0 0.1
2014-Dec-08 16:32N 49°18' W 122°56'0 0.1
2014-Dec-08 15:29N 49°18' W 122°56'0 0.0
2014-Dec-08 14:32N 49°18' W 122°56'0 0.0
2014-Dec-08 13:32N 49°18' W 122°56'0 0.1
2014-Dec-08 12:26N 49°18' W 122°56'0 0.1
2014-Dec-08 11:32N 49°18' W 122°56'0 0.0
2014-Dec-08 10:32N 49°18' W 122°56'0 0.0
2014-Dec-08 09:32N 49°18' W 122°56'0 0.1
2014-Dec-08 08:29N 49°18' W 122°56'0 0.0
2014-Dec-08 07:32N 49°18' W 122°56'0 0.0
2014-Dec-08 06:32N 49°18' W 122°56'0 0.0
2014-Dec-08 05:32N 49°18' W 122°56'0 0.0
2014-Dec-08 04:32N 49°18' W 122°56'0 0.1
2014-Dec-08 03:32N 49°18' W 122°56'0 0.0
2014-Dec-08 02:32N 49°18' W 122°56'0 0.0
2014-Dec-08 01:32N 49°18' W 122°56'0 0.0
2014-Dec-08 00:32N 49°18' W 122°56'0 0.1
2014-Dec-07 23:29N 49°18' W 122°56'0 0.0
2014-Dec-07 22:32N 49°18' W 122°56'0 0.0
2014-Dec-07 21:32N 49°18' W 122°56'0 0.0
2014-Dec-07 20:32N 49°18' W 122°56'0 0.1
2014-Dec-07 19:32N 49°18' W 122°56'0 0.0
2014-Dec-07 18:32N 49°18' W 122°56'0 0.0
2014-Dec-07 17:32N 49°18' W 122°56'0 0.0
2014-Dec-07 16:32N 49°18' W 122°56'0 0.1
2014-Dec-07 15:32N 49°18' W 122°56'0 0.1
2014-Dec-07 14:32N 49°18' W 122°56'0 0.0
2014-Dec-07 13:32N 49°18' W 122°56'0 0.1
2014-Dec-07 12:32N 49°18' W 122°56'0 0.0
2014-Dec-07 11:32N 49°18' W 122°56'0 0.0
2014-Dec-07 10:32N 49°18' W 122°56'0 0.0
2014-Dec-07 09:32N 49°18' W 122°56'0 0.0
2014-Dec-07 08:32N 49°18' W 122°56'0 0.0
2014-Dec-07 07:32N 49°18' W 122°56'0 0.0
2014-Dec-07 06:32N 49°18' W 122°56'  

Dump ship's entire track history